Terminal Aerodrome Forecast
Issued by NWS

Home | Current Version | Previous Version | Text Only | Print | Product List | Glossary On
Versions: 1 2 3 4 5 6 7 8 9 10 11 12 13 14 15 16 17 18 19 20
367
FTUS41 KPBZ 250535
TAFFKL
TAF
KFKL 250535Z 2506/2606 17012KT P6SM BKN100 WS020/20050KT
     FM250800 18012G22KT 3SM -SHRA VCTS OVC040CB
      TEMPO 2508/2510 VRB15G30KT 2SM TSRA OVC020CB
     FM251200 24015G25KT 5SM -SHRA OVC020
     FM251600 26015G25KT P6SM VCSH OVC020
      AMD LTD TO CLD VIS AND WIND=

USA.gov is the U.S. government's official web portal to all federal, state and local government web resources and services.